Time;durP1;ratioP1;P1;durP2;ratioP2;P2;SDS_P1;SDS_P2;PMS_P1;PMS_P2;Temp;Humidity;BMP_temperature;BMP_pressure;BME280_temperature;BME280_humidity;BME280_pressure;Samples;Min_cycle;Max_cycle;Signal;HPM_P1;HPM_P2
2021/04/27 00:00:48;;;;;;;5.72;1.70;;;;;;;5.42;41.10;99856.19;2067881;28;20100;-67
2021/04/27 00:01:48;;;;;;;7.50;2.33;;;;;;;5.76;40.24;99866.00;2067874;28;20034;-66
2021/04/27 00:02:49;;;;;;;4.97;2.00;;;;;;;5.80;40.01;99856.44;2068574;28;20041;-66
2021/04/27 00:03:49;;;;;;;2.53;2.00;;;;;;;5.77;39.64;99852.19;2068890;28;20034;-66
2021/04/27 00:04:49;;;;;;;2.17;1.80;;;;;;;5.99;39.24;99857.00;2069620;28;20041;-67
2021/04/27 00:05:50;;;;;;;3.13;1.80;;;;;;;6.06;39.70;99853.47;2075667;28;20127;-67
2021/04/27 00:06:50;;;;;;;3.83;1.83;;;;;;;5.98;39.51;99861.31;2068148;28;20033;-67
2021/04/27 00:07:51;;;;;;;3.50;1.87;;;;;;;5.83;39.98;99857.25;2069019;28;20014;-67
2021/04/27 00:08:51;;;;;;;6.37;2.40;;;;;;;5.66;41.01;99851.50;2068518;28;20042;-67
2021/04/27 00:09:52;;;;;;;3.13;1.83;;;;;;;5.55;43.04;99865.44;2068340;28;20496;-67
2021/04/27 00:10:52;;;;;;;5.10;2.40;;;;;;;5.32;44.12;99857.19;2067464;28;20118;-67
2021/04/27 00:11:53;;;;;;;6.00;2.10;;;;;;;5.13;44.95;99866.03;2068233;28;20048;-66
2021/04/27 00:12:53;;;;;;;4.77;2.10;;;;;;;4.92;45.73;99867.16;2067163;28;20033;-65
2021/04/27 00:13:53;;;;;;;6.73;2.47;;;;;;;4.83;46.50;99867.28;2071308;28;20512;-67
2021/04/27 00:14:54;;;;;;;7.13;2.03;;;;;;;4.92;44.84;99867.16;2067192;28;20029;-65
2021/04/27 00:15:54;;;;;;;4.40;2.27;;;;;;;4.79;47.25;99860.44;2068329;28;20096;-65
2021/04/27 00:16:54;;;;;;;5.67;2.10;;;;;;;4.47;48.80;99859.94;2067763;28;20114;-66
2021/04/27 00:17:55;;;;;;;5.37;2.27;;;;;;;4.35;49.45;99857.47;2068430;28;20057;-65
2021/04/27 00:18:55;;;;;;;6.27;2.33;;;;;;;4.15;50.06;99858.53;2069709;28;20153;-65
2021/04/27 00:19:56;;;;;;;6.70;2.40;;;;;;;4.07;50.49;99854.28;2069222;28;20029;-66
2021/04/27 00:20:56;;;;;;;6.17;2.27;;;;;;;4.00;50.59;99856.94;2069076;28;20160;-66
2021/04/27 00:21:57;;;;;;;3.25;2.03;;;;;;;3.84;51.32;99850.22;2068783;28;20468;-65
2021/04/27 00:22:57;;;;;;;4.57;2.87;;;;;;;3.76;51.67;99854.59;2069230;28;20037;-66
2021/04/27 00:23:58;;;;;;;6.28;2.00;;;;;;;3.67;52.67;99853.78;2068688;28;20120;-66
2021/04/27 00:24:59;;;;;;;4.27;2.10;;;;;;;3.66;52.34;99849.50;2068289;28;20057;-66
2021/04/27 00:25:59;;;;;;;6.22;2.42;;;;;;;3.63;52.36;99849.50;2068287;28;20390;-66
2021/04/27 00:27:00;;;;;;;5.57;2.67;;;;;;;3.54;52.68;99854.72;2067878;28;20030;-65
2021/04/27 00:28:01;;;;;;;6.25;2.58;;;;;;;3.42;53.27;99853.09;2068159;28;20807;-66
2021/04/27 00:29:03;;;;;;;3.10;2.30;;;;;;;3.42;53.11;99846.22;2069224;28;20042;-65
2021/04/27 00:30:06;;;;;;;4.47;2.33;;;;;;;3.33;54.04;99848.00;2070680;28;20041;-65
2021/04/27 00:31:06;;;;;;;5.72;2.33;;;;;;;3.26;54.34;99847.19;2068469;28;20037;-66
2021/04/27 00:32:07;;;;;;;6.13;2.67;;;;;;;3.23;54.41;99849.78;2067637;28;20115;-65
2021/04/27 00:33:07;;;;;;;5.47;2.30;;;;;;;3.13;54.93;99848.09;2068118;28;20030;-66
2021/04/27 00:34:08;;;;;;;5.38;2.50;;;;;;;3.10;54.63;99844.69;2068114;28;20611;-65
2021/04/27 00:35:09;;;;;;;5.40;2.30;;;;;;;3.06;54.51;99843.00;2069455;28;20045;-66
2021/04/27 00:36:10;;;;;;;5.13;2.60;;;;;;;2.96;55.65;99837.03;2070064;28;20037;-65
2021/04/27 00:37:10;;;;;;;5.73;2.10;;;;;;;2.99;54.83;99837.88;2069486;28;20041;-66
2021/04/27 00:38:10;;;;;;;4.90;2.40;;;;;;;2.91;55.45;99838.78;2068983;28;20030;-66
2021/04/27 00:39:11;;;;;;;4.40;2.40;;;;;;;2.95;55.67;99839.63;2072793;28;20486;-66
2021/04/27 00:40:14;;;;;;;4.33;2.33;;;;;;;2.92;55.27;99840.50;2071828;28;20025;-65
2021/04/27 00:41:14;;;;;;;4.68;2.60;;;;;;;2.88;55.50;99840.53;2072059;28;20038;-66
2021/04/27 00:42:15;;;;;;;3.53;2.25;;;;;;;2.90;54.53;99836.19;2074164;28;20468;-66
2021/04/27 00:43:15;;;;;;;4.10;2.53;;;;;;;2.94;53.99;99838.75;2075627;28;20059;-66
2021/04/27 00:44:15;;;;;;;3.93;2.23;;;;;;;2.96;54.22;99841.34;2072633;28;20067;-65
2021/04/27 00:45:19;;;;;;;5.43;2.33;;;;;;;3.00;53.89;99832.72;2075266;28;20572;-66
2021/04/27 00:46:19;;;;;;;6.28;2.30;;;;;;;3.07;53.75;99839.56;2075324;28;20029;-66
2021/04/27 00:47:20;;;;;;;6.60;2.30;;;;;;;3.16;52.35;99830.91;2076665;28;20502;-66
2021/04/27 00:48:20;;;;;;;3.23;2.10;;;;;;;3.13;53.10;99827.50;2071193;28;20550;-65
2021/04/27 00:49:20;;;;;;;4.43;2.03;;;;;;;3.20;52.02;99832.63;2074056;28;20037;-66
2021/04/27 00:50:30;;;;;;;5.50;2.53;;;;;;;3.24;51.73;99838.59;2072561;28;20108;-65
2021/04/27 00:51:32;;;;;;;4.32;2.20;;;;;;;3.32;51.93;99836.84;2076963;28;20091;-65
2021/04/27 00:52:32;;;;;;;2.97;2.05;;;;;;;3.50;50.88;99837.56;2071055;28;20112;-66
2021/04/27 00:53:32;;;;;;;4.60;2.30;;;;;;;3.48;51.66;99832.44;2073539;28;20049;-66
2021/04/27 00:54:33;;;;;;;4.32;2.35;;;;;;;3.43;52.31;99837.63;2074101;28;20053;-66
2021/04/27 00:55:34;;;;;;;6.80;2.50;;;;;;;3.45;52.70;99829.03;2076100;28;20044;-66
2021/04/27 00:56:35;;;;;;;5.32;2.55;;;;;;;3.47;52.67;99825.56;2075118;28;20112;-66
2021/04/27 00:57:36;;;;;;;6.47;2.53;;;;;;;3.43;52.52;99827.31;2073346;28;20096;-66
2021/04/27 00:58:37;;;;;;;4.00;2.28;;;;;;;3.35;53.29;99825.66;2073571;28;20116;-66
2021/04/27 00:59:38;;;;;;;3.70;2.08;;;;;;;3.58;50.67;99822.91;2073708;28;20029;-66
2021/04/27 01:00:41;;;;;;;5.80;2.58;;;;;;;3.46;52.17;99826.44;2068696;28;20030;-66
2021/04/27 01:01:41;;;;;;;7.05;2.40;;;;;;;3.53;52.57;99825.53;2070220;28;20136;-66
2021/04/27 01:02:41;;;;;;;7.80;2.67;;;;;;;3.52;52.76;99826.41;2070402;28;20033;-66
2021/04/27 01:03:42;;;;;;;6.80;2.70;;;;;;;3.45;53.34;99819.56;2073462;28;20029;-66
2021/04/27 01:04:43;;;;;;;5.32;2.30;;;;;;;3.47;53.46;99827.31;2071197;28;20391;-65
2021/04/27 01:05:44;;;;;;;4.95;2.95;;;;;;;3.41;54.01;99829.03;2078454;28;20071;-65
2021/04/27 01:06:44;;;;;;;3.72;2.70;;;;;;;3.33;54.47;99830.81;2076367;28;20033;-65
2021/04/27 01:08:16;;;;;;;5.77;2.53;;;;;;;3.27;55.23;99831.72;2073656;28;20077;-65
2021/04/27 01:09:24;;;;;;;7.03;3.00;;;;;;;3.19;55.70;99828.34;2045851;28;20039;-66
2021/04/27 01:10:33;;;;;;;5.65;2.58;;;;;;;3.14;56.45;99826.66;2072586;28;20026;-65
2021/04/27 01:11:47;;;;;;;3.67;2.47;;;;;;;2.98;57.34;99824.19;2066772;28;20023;-65
2021/04/27 01:12:57;;;;;;;5.00;2.40;;;;;;;2.85;58.38;99827.66;2071447;28;20033;-65
2021/04/27 01:14:08;;;;;;;5.15;2.53;;;;;;;2.67;59.04;99829.47;2074195;28;20021;-65
2021/04/27 01:15:14;;;;;;;6.35;3.00;;;;;;;2.57;59.21;99818.31;2077042;28;20029;-65
2021/04/27 01:16:18;;;;;;;5.90;2.58;;;;;;;2.46;59.18;99815.81;2072158;28;20474;-65
2021/04/27 01:17:20;;;;;;;4.38;2.53;;;;;;;2.40;59.75;99826.09;2071219;28;20026;-65
2021/04/27 01:18:23;;;;;;;3.65;2.40;;;;;;;2.41;59.90;99826.97;2072585;28;20038;-65
2021/04/27 01:19:34;;;;;;;7.75;2.90;;;;;;;2.28;60.56;99821.00;2071321;28;20502;-65
2021/04/27 01:20:34;;;;;;;3.58;2.58;;;;;;;2.18;61.21;99821.03;2072132;28;20904;-65
2021/04/27 01:21:36;;;;;;;5.20;2.43;;;;;;;2.22;61.47;99823.56;2070099;28;20033;-65
2021/04/27 01:22:57;;;;;;;4.25;2.45;;;;;;;2.11;61.52;99824.44;2075344;28;20038;-64
2021/04/27 01:24:11;;;;;;;4.30;2.42;;;;;;;2.09;61.30;99821.03;2074313;28;20026;-64
2021/04/27 01:25:18;;;;;;;2.70;2.20;;;;;;;2.03;61.69;99821.03;2076077;28;20839;-65
2021/04/27 01:26:18;;;;;;;5.45;2.15;;;;;;;2.01;61.71;99820.16;2069345;28;20739;-65
2021/04/27 01:27:20;;;;;;;4.17;2.53;;;;;;;2.08;61.44;99818.44;2073248;28;20104;-65
2021/04/27 01:28:21;;;;;;;5.35;2.33;;;;;;;2.07;61.33;99820.19;2076622;28;20087;-64
2021/04/27 01:29:27;;;;;;;7.75;2.63;;;;;;;2.00;61.96;99819.31;2071796;28;20022;-65
2021/04/27 01:30:28;;;;;;;3.60;2.38;;;;;;;1.94;61.82;99818.47;2071251;28;20041;-64
2021/04/27 01:31:29;;;;;;;4.13;2.60;;;;;;;2.04;61.94;99814.19;2074941;28;20029;-64
2021/04/27 01:32:31;;;;;;;5.32;2.50;;;;;;;2.00;61.90;99816.75;2071541;28;20025;-64
2021/04/27 01:33:32;;;;;;;7.00;2.60;;;;;;;2.03;61.91;99821.03;2074149;28;20064;-65
2021/04/27 01:34:39;;;;;;;5.57;2.60;;;;;;;2.04;61.44;99816.75;2071859;28;20028;-65
2021/04/27 01:35:40;;;;;;;4.38;2.55;;;;;;;2.01;61.90;99817.59;2066945;28;20084;-65
2021/04/27 01:36:41;;;;;;;7.05;2.85;;;;;;;2.00;61.86;99815.91;2071596;28;20022;-65
2021/04/27 01:37:41;;;;;;;6.33;2.30;;;;;;;2.00;62.02;99815.91;2070176;28;20466;-65
2021/04/27 01:38:43;;;;;;;3.07;2.57;;;;;;;2.06;62.11;99818.47;2070876;28;20026;-65
2021/04/27 01:39:44;;;;;;;4.97;2.45;;;;;;;1.96;62.24;99814.19;2070835;28;20044;-65
2021/04/27 01:40:44;;;;;;;6.97;3.00;;;;;;;1.98;62.70;99813.31;2073089;28;20445;-65
2021/04/27 01:41:47;;;;;;;5.83;2.53;;;;;;;2.00;63.06;99821.06;2070469;28;20026;-65
2021/04/27 01:42:48;;;;;;;6.28;2.80;;;;;;;1.99;62.61;99817.63;2070682;28;20045;-65
2021/04/27 01:43:49;;;;;;;4.72;2.50;;;;;;;2.05;62.30;99819.31;2072721;28;20768;-65
2021/04/27 01:44:49;;;;;;;3.53;2.60;;;;;;;1.99;62.11;99816.78;2072579;28;20025;-65
2021/04/27 01:46:04;;;;;;;6.82;2.67;;;;;;;1.95;62.57;99812.47;2071491;28;20109;-65
2021/04/27 01:47:08;;;;;;;5.60;2.60;;;;;;;1.97;62.37;99816.75;2078425;28;20041;-65
2021/04/27 01:48:09;;;;;;;6.97;2.60;;;;;;;1.98;62.14;99818.47;2072191;28;20061;-66
2021/04/27 01:49:12;;;;;;;6.60;2.55;;;;;;;2.05;61.98;99824.47;2073324;28;20037;-66
2021/04/27 01:50:13;;;;;;;4.22;2.67;;;;;;;2.05;61.62;99814.19;2075026;28;20069;-66
2021/04/27 01:51:13;;;;;;;7.60;3.20;;;;;;;2.02;61.32;99814.19;2075443;28;20052;-65
2021/04/27 01:52:14;;;;;;;4.97;2.37;;;;;;;2.04;61.40;99827.03;2076463;28;20045;-66
2021/04/27 01:53:15;;;;;;;8.30;2.50;;;;;;;1.98;61.48;99818.47;2072949;28;20049;-66
2021/04/27 01:54:15;;;;;;;3.78;2.70;;;;;;;1.97;62.16;99815.91;2072213;28;20473;-65
2021/04/27 01:55:17;;;;;;;4.50;2.40;;;;;;;2.04;61.89;99819.34;2069648;28;20157;-65
2021/04/27 01:56:17;;;;;;;5.88;3.42;;;;;;;2.03;61.44;99810.75;2076742;28;20087;-65
2021/04/27 01:57:19;;;;;;;4.80;2.50;;;;;;;2.03;61.36;99821.03;2071355;28;20486;-65
2021/04/27 01:58:20;;;;;;;4.78;2.90;;;;;;;1.96;61.61;99815.03;2070574;28;20021;-65
2021/04/27 01:59:20;;;;;;;5.97;2.77;;;;;;;1.95;61.33;99812.47;2075594;28;20029;-65
2021/04/27 02:00:23;;;;;;;3.95;2.55;;;;;;;1.98;61.67;99817.63;2077121;28;20025;-65
2021/04/27 02:01:25;;;;;;;11.57;2.75;;;;;;;2.03;61.19;99810.75;2077827;28;20033;-65
2021/04/27 02:02:25;;;;;;;6.28;3.30;;;;;;;2.00;60.99;99814.19;2071394;28;20101;-65
2021/04/27 02:03:27;;;;;;;5.40;2.70;;;;;;;2.07;61.15;99817.63;2074060;28;20627;-65
2021/04/27 02:04:29;;;;;;;6.47;3.00;;;;;;;2.06;61.24;99812.47;2076572;28;20044;-65
2021/04/27 02:05:29;;;;;;;4.55;2.63;;;;;;;2.08;60.97;99810.75;2071535;28;20025;-64
2021/04/27 02:06:30;;;;;;;5.57;2.70;;;;;;;2.11;60.51;99809.00;2070038;28;20026;-63
2021/04/27 02:07:33;;;;;;;4.22;2.30;;;;;;;2.14;60.63;99803.88;2071868;28;20152;-66
2021/04/27 02:08:33;;;;;;;9.27;3.00;;;;;;;2.15;60.99;99809.91;2069634;28;20038;-65
2021/04/27 02:09:34;;;;;;;5.70;3.23;;;;;;;2.14;60.69;99813.31;2072844;28;20402;-65
2021/04/27 02:10:35;;;;;;;6.83;2.60;;;;;;;2.12;60.76;99805.59;2072556;28;20100;-65
2021/04/27 02:11:39;;;;;;;7.90;2.90;;;;;;;2.12;61.15;99809.88;2072916;28;21005;-65
2021/04/27 02:12:45;;;;;;;5.25;2.65;;;;;;;2.07;61.11;99809.03;2067173;28;20474;-65
2021/04/27 02:13:45;;;;;;;5.18;3.20;;;;;;;2.11;60.62;99809.00;2073967;28;20030;-65
2021/04/27 02:14:46;;;;;;;4.40;2.53;;;;;;;2.10;60.81;99806.47;2078972;28;20029;-65
2021/04/27 02:15:46;;;;;;;4.53;3.20;;;;;;;2.06;61.34;99815.06;2072585;28;20022;-65
2021/04/27 02:17:02;;;;;;;7.43;2.63;;;;;;;2.01;61.43;99808.19;2073339;28;20044;-65
2021/04/27 02:18:17;;;;;;;3.88;2.55;;;;;;;2.10;61.36;99809.91;2072319;28;20533;-65
2021/04/27 02:19:23;;;;;;;3.53;2.72;;;;;;;2.07;61.54;99812.47;2076695;28;20033;-65
2021/04/27 02:20:26;;;;;;;5.25;2.60;;;;;;;2.09;61.35;99815.91;2072017;28;20029;-65
2021/04/27 02:21:27;;;;;;;4.22;2.72;;;;;;;2.10;61.12;99809.03;2074199;28;20026;-65
2021/04/27 02:22:29;;;;;;;5.13;2.78;;;;;;;2.08;61.03;99809.03;2071124;28;20025;-65
2021/04/27 02:23:30;;;;;;;4.93;2.95;;;;;;;1.98;61.58;99810.75;2076479;28;20099;-65
2021/04/27 02:24:32;;;;;;;;;;;;;;;1.97;61.80;99808.19;2078182;28;20029;-65
2021/04/27 02:25:33;;;;;;;6.38;2.60;;;;;;;1.95;62.07;99808.22;2065332;28;20000;-65
2021/04/27 02:26:34;;;;;;;9.35;3.10;;;;;;;1.97;61.70;99805.63;2074159;28;20033;-65
2021/04/27 02:27:35;;;;;;;8.20;3.08;;;;;;;1.98;61.38;99800.47;2070719;28;20025;-65
2021/04/27 02:28:36;;;;;;;4.07;2.67;;;;;;;2.00;61.52;99798.75;2077555;28;20025;-65
2021/04/27 02:29:37;;;;;;;6.25;2.70;;;;;;;1.99;61.66;99801.34;2070552;28;20477;-66
2021/04/27 02:30:38;;;;;;;10.57;2.97;;;;;;;1.96;61.85;99802.19;2071491;28;20500;-65
2021/04/27 02:31:39;;;;;;;7.35;2.88;;;;;;;1.90;62.13;99803.94;2075249;28;20535;-65
2021/04/27 02:32:41;;;;;;;8.65;2.85;;;;;;;1.90;62.19;99806.50;2072139;28;20033;-65
2021/04/27 02:33:43;;;;;;;6.18;2.63;;;;;;;1.95;62.08;99805.63;2077439;28;20428;-65
2021/04/27 02:34:44;;;;;;;7.60;2.55;;;;;;;1.91;62.02;99801.34;2065367;28;20037;-65
2021/04/27 02:35:45;;;;;;;8.77;2.67;;;;;;;1.92;61.91;99807.34;2070457;28;20045;-65
2021/04/27 02:36:46;;;;;;;6.43;2.90;;;;;;;1.89;61.83;99800.50;2074984;28;20022;-65
2021/04/27 02:37:48;;;;;;;6.47;2.83;;;;;;;1.84;62.14;99800.50;2074656;28;20107;-66
2021/04/27 02:38:48;;;;;;;4.95;2.80;;;;;;;1.86;62.20;99800.53;2075978;28;20278;-66
2021/04/27 02:39:49;;;;;;;5.37;2.90;;;;;;;1.92;61.87;99791.91;2071885;28;20576;-66
2021/04/27 02:40:54;;;;;;;5.47;2.27;;;;;;;1.95;62.48;99799.63;2071100;28;20036;-66
2021/04/27 02:41:54;;;;;;;3.92;2.88;;;;;;;1.93;61.69;99797.06;2066759;28;20099;-66
2021/04/27 02:42:58;;;;;;;4.13;2.70;;;;;;;1.98;61.57;99792.75;2079646;28;20108;-66
2021/04/27 02:44:00;;;;;;;8.02;2.65;;;;;;;1.95;61.43;99799.63;2077226;28;20021;-66
2021/04/27 02:45:01;;;;;;;4.75;2.78;;;;;;;1.98;61.12;99792.75;2070648;28;20760;-66
2021/04/27 02:46:01;;;;;;;4.07;2.60;;;;;;;1.96;61.26;99791.06;2075931;28;20037;-66
2021/04/27 02:47:03;;;;;;;7.17;2.87;;;;;;;1.92;61.58;99792.78;2077267;28;20314;-66
2021/04/27 02:48:04;;;;;;;;;;;;;;;1.99;61.99;99789.34;2071846;28;20064;-66
2021/04/27 02:49:05;;;;;;;5.90;3.00;;;;;;;2.07;61.39;99791.03;2072152;28;19921;-67
2021/04/27 02:50:05;;;;;;;5.07;2.90;;;;;;;2.07;60.60;99789.34;2070475;28;20382;-66
2021/04/27 02:51:06;;;;;;;6.63;2.45;;;;;;;2.00;60.64;99783.34;2073007;28;20421;-66
2021/04/27 02:52:06;;;;;;;4.00;2.47;;;;;;;1.97;60.87;99785.06;2078306;28;20048;-67
2021/04/27 02:53:07;;;;;;;9.43;3.50;;;;;;;1.99;60.58;99788.50;2071582;28;20351;-66
2021/04/27 02:54:07;;;;;;;4.03;2.50;;;;;;;2.01;60.71;99791.91;2073291;28;20053;-66
2021/04/27 02:55:12;;;;;;;5.38;2.50;;;;;;;2.04;60.42;99781.63;2072870;28;20741;-66
2021/04/27 02:56:12;;;;;;;8.05;2.50;;;;;;;1.99;60.28;99794.47;2077431;28;20132;-66
2021/04/27 02:57:13;;;;;;;4.90;2.67;;;;;;;1.95;60.94;99785.09;2070592;28;20445;-66
2021/04/27 02:58:13;;;;;;;4.33;2.47;;;;;;;1.99;60.57;99791.91;2070007;28;20029;-66
2021/04/27 02:59:13;;;;;;;7.97;2.70;;;;;;;1.95;60.79;99791.91;2070298;28;20037;-66
2021/04/27 03:00:14;;;;;;;6.63;2.60;;;;;;;1.97;60.65;99792.78;2074160;28;20033;-66
2021/04/27 03:01:15;;;;;;;8.98;3.05;;;;;;;1.98;60.68;99789.34;2077797;28;20025;-67
2021/04/27 03:02:15;;;;;;;5.47;2.55;;;;;;;1.93;61.32;99789.38;2071888;28;20030;-67
2021/04/27 03:03:16;;;;;;;4.40;2.70;;;;;;;1.91;61.99;99791.06;2071674;28;20382;-66
2021/04/27 03:04:16;;;;;;;6.47;2.70;;;;;;;1.90;61.68;99794.50;2073063;28;20454;-66
2021/04/27 03:05:16;;;;;;;3.20;2.50;;;;;;;1.97;61.25;99788.47;2071111;28;20144;-66
2021/04/27 03:06:17;;;;;;;7.33;2.93;;;;;;;1.98;61.04;99786.78;2076577;28;20497;-66
2021/04/27 03:07:17;;;;;;;5.73;2.57;;;;;;;1.95;61.74;99784.22;2071629;28;20279;-65
2021/04/27 03:08:18;;;;;;;4.93;2.80;;;;;;;1.95;61.59;99791.91;2070758;28;20030;-66
2021/04/27 03:09:18;;;;;;;3.47;2.80;;;;;;;1.94;61.46;99785.06;2074867;28;20036;-66
2021/04/27 03:10:18;;;;;;;6.20;2.80;;;;;;;1.93;61.41;99783.34;2071622;28;20025;-66
2021/04/27 03:11:19;;;;;;;8.53;2.50;;;;;;;1.92;61.64;99782.50;2071121;28;20038;-66
2021/04/27 03:12:19;;;;;;;4.77;2.77;;;;;;;1.92;61.56;99786.78;2073426;28;20033;-66
2021/04/27 03:13:20;;;;;;;7.07;2.60;;;;;;;1.92;61.25;99792.78;2074061;28;20053;-66
2021/04/27 03:14:21;;;;;;;5.80;2.80;;;;;;;1.94;61.00;99787.63;2074729;28;20650;-66
2021/04/27 03:15:21;;;;;;;3.50;2.73;;;;;;;1.96;61.19;99793.63;2071360;28;20117;-66
2021/04/27 03:16:23;;;;;;;4.70;2.72;;;;;;;1.91;61.54;99798.78;2072062;28;20076;-67
2021/04/27 03:17:23;;;;;;;3.80;2.72;;;;;;;1.89;62.27;99791.94;2073549;28;20045;-65
2021/04/27 03:18:23;;;;;;;9.57;2.80;;;;;;;1.85;62.29;99789.38;2074648;28;20420;-66
2021/04/27 03:19:24;;;;;;;6.80;2.97;;;;;;;1.89;62.60;99791.94;2076006;28;20474;-66
2021/04/27 03:20:24;;;;;;;5.00;2.80;;;;;;;1.85;62.53;99785.94;2071395;28;20104;-65
2021/04/27 03:21:24;;;;;;;6.80;2.70;;;;;;;1.92;62.19;99786.78;2070362;28;20022;-66
2021/04/27 03:22:25;;;;;;;5.87;2.37;;;;;;;1.91;61.57;99785.94;2072494;28;20033;-65
2021/04/27 03:23:25;;;;;;;5.80;2.70;;;;;;;1.88;61.65;99785.94;2076148;28;20029;-65
2021/04/27 03:24:26;;;;;;;5.60;2.80;;;;;;;1.87;61.74;99791.91;2076825;28;20032;-65
2021/04/27 03:25:26;;;;;;;5.07;2.60;;;;;;;1.85;61.71;99786.78;2070884;28;20041;-66
2021/04/27 03:26:26;;;;;;;4.80;2.90;;;;;;;1.89;62.12;99790.22;2072724;28;20567;-66
2021/04/27 03:27:27;;;;;;;6.13;2.90;;;;;;;1.88;62.25;99793.63;2075208;28;20120;-66
2021/04/27 03:28:27;;;;;;;5.13;2.50;;;;;;;1.88;61.93;99791.06;2070543;28;20061;-66
2021/04/27 03:29:27;;;;;;;3.50;2.63;;;;;;;1.84;61.74;99782.50;2076017;28;20049;-66
2021/04/27 03:30:27;;;;;;;3.10;2.60;;;;;;;1.84;61.73;99785.06;2070063;28;20034;-66
2021/04/27 03:31:28;;;;;;;6.73;2.80;;;;;;;1.81;61.92;99779.94;2073854;28;20030;-66
2021/04/27 03:32:28;;;;;;;6.03;2.90;;;;;;;1.79;62.09;99780.81;2071124;28;20026;-66
2021/04/27 03:33:28;;;;;;;10.23;3.17;;;;;;;1.76;62.25;99786.81;2075791;28;20112;-66
2021/04/27 03:34:29;;;;;;;11.37;2.90;;;;;;;1.76;62.27;99783.41;2070516;28;20131;-66
2021/04/27 03:35:30;;;;;;;4.23;2.50;;;;;;;1.73;62.18;99783.38;2072046;28;20029;-65
2021/04/27 03:36:31;;;;;;;10.55;3.10;;;;;;;1.66;62.66;99791.09;2074476;28;20029;-65
2021/04/27 03:37:31;;;;;;;7.00;3.00;;;;;;;1.69;62.88;99785.09;2072258;28;20517;-65
2021/04/27 03:38:31;;;;;;;4.60;2.73;;;;;;;1.69;62.52;99783.38;2077464;28;20026;-65
2021/04/27 03:39:32;;;;;;;7.23;3.37;;;;;;;1.70;62.70;99784.25;2071532;28;21015;-66
2021/04/27 03:40:32;;;;;;;5.35;2.67;;;;;;;1.66;62.98;99792.81;2069165;28;20111;-66
2021/04/27 03:41:33;;;;;;;5.57;2.90;;;;;;;1.71;63.02;99788.53;2072006;28;20079;-66
2021/04/27 03:42:33;;;;;;;6.73;2.43;;;;;;;1.67;62.70;99785.09;2069346;28;20545;-66
2021/04/27 03:43:33;;;;;;;4.07;3.17;;;;;;;1.65;62.74;99780.81;2070106;28;20700;-66
2021/04/27 03:44:34;;;;;;;5.53;2.70;;;;;;;1.63;63.24;99777.38;2069296;28;20044;-68
2021/04/27 03:45:35;;;;;;;6.10;2.83;;;;;;;1.62;63.58;99784.25;2074554;28;20139;-66
2021/04/27 03:46:35;;;;;;;5.55;3.00;;;;;;;1.61;63.28;99779.13;2075135;28;20029;-66
2021/04/27 03:47:36;;;;;;;7.97;2.87;;;;;;;1.63;63.26;99780.81;2069383;28;20601;-66
2021/04/27 03:48:36;;;;;;;6.93;2.70;;;;;;;1.63;63.53;99779.94;2069383;28;20037;-66
2021/04/27 03:49:37;;;;;;;4.83;2.77;;;;;;;1.60;64.01;99779.97;2101663;22;20084;-62
2021/04/27 03:50:37;;;;;;;4.85;2.88;;;;;;;1.58;63.75;99781.69;2070250;28;20119;-62
2021/04/27 03:51:38;;;;;;;3.92;2.72;;;;;;;1.55;63.68;99777.41;2069807;28;20038;-62
2021/04/27 03:52:38;;;;;;;4.82;2.85;;;;;;;1.56;64.03;99781.69;2070058;28;20056;-62
2021/04/27 03:53:39;;;;;;;6.10;3.10;;;;;;;1.52;63.80;99778.25;2069723;28;20034;-62
2021/04/27 03:54:39;;;;;;;6.23;2.80;;;;;;;1.52;63.98;99782.53;2068842;28;20083;-62
2021/04/27 03:55:39;;;;;;;4.70;2.87;;;;;;;1.49;64.28;99780.81;2069715;28;20026;-62
2021/04/27 03:56:40;;;;;;;6.13;2.80;;;;;;;1.44;64.58;99781.69;2069238;28;20022;-62
2021/04/27 03:57:40;;;;;;;7.40;3.03;;;;;;;1.41;64.95;99779.97;2070221;28;20482;-62
2021/04/27 03:58:40;;;;;;;4.90;2.80;;;;;;;1.39;65.32;99782.53;2069738;28;20089;-62
2021/04/27 03:59:41;;;;;;;3.57;3.13;;;;;;;1.37;65.09;99778.25;2069555;28;20025;-62
2021/04/27 04:00:41;;;;;;;11.83;3.27;;;;;;;1.40;65.27;99784.25;2069558;28;20033;-62
2021/04/27 04:01:42;;;;;;;6.63;3.10;;;;;;;1.42;64.82;99783.38;2069597;28;20061;-63
2021/04/27 04:02:42;;;;;;;8.85;3.28;;;;;;;1.43;65.17;99780.81;2070191;28;20040;-63
2021/04/27 04:03:43;;;;;;;4.57;2.97;;;;;;;1.48;65.22;99788.50;2069617;28;20686;-63
2021/04/27 04:04:43;;;;;;;6.37;3.50;;;;;;;1.46;64.79;99788.53;2069932;28;20030;-63
2021/04/27 04:05:43;;;;;;;4.90;3.00;;;;;;;1.44;65.09;99785.09;2063723;28;20772;-63
2021/04/27 04:06:44;;;;;;;9.63;3.30;;;;;;;1.46;65.01;99782.53;2068354;28;20034;-63
2021/04/27 04:07:44;;;;;;;6.73;2.80;;;;;;;1.40;65.40;99783.41;2069511;28;20034;-63
2021/04/27 04:08:45;;;;;;;5.30;3.40;;;;;;;1.44;65.34;99785.09;2069983;28;20387;-64
2021/04/27 04:09:45;;;;;;;6.25;3.00;;;;;;;1.47;65.33;99777.41;2069329;28;20141;-63
2021/04/27 04:10:46;;;;;;;6.20;3.13;;;;;;;1.47;65.40;99784.25;2064476;28;20030;-63
2021/04/27 04:11:46;;;;;;;8.23;3.47;;;;;;;1.46;65.48;99778.25;2070481;28;20038;-63
2021/04/27 04:12:46;;;;;;;7.23;3.57;;;;;;;1.45;65.46;99776.53;2070031;28;20113;-63
2021/04/27 04:13:46;;;;;;;20.43;3.37;;;;;;;1.49;65.37;99777.38;2069966;28;20478;-63
2021/04/27 04:14:47;;;;;;;8.83;2.87;;;;;;;1.49;65.11;99780.81;2069883;28;20076;-63
2021/04/27 04:15:47;;;;;;;4.20;3.00;;;;;;;1.46;65.20;99785.97;2070120;28;20029;-63
2021/04/27 04:16:47;;;;;;;8.87;3.27;;;;;;;1.42;65.30;99780.81;2069380;28;20064;-64
2021/04/27 04:17:48;;;;;;;4.83;3.20;;;;;;;1.40;66.03;99778.25;2070318;28;20088;-63
2021/04/27 04:18:48;;;;;;;6.38;3.13;;;;;;;1.34;65.68;99785.94;2069668;28;20064;-64
2021/04/27 04:19:49;;;;;;;6.93;3.37;;;;;;;1.37;65.58;99783.38;2070028;28;20026;-64
2021/04/27 04:20:50;;;;;;;9.30;2.90;;;;;;;1.40;65.37;99780.81;2069836;28;20021;-64
2021/04/27 04:21:50;;;;;;;6.20;3.10;;;;;;;1.39;65.11;99786.81;2067651;28;20563;-63
2021/04/27 04:22:51;;;;;;;5.03;3.43;;;;;;;1.40;65.15;99785.97;2069843;28;20108;-63
2021/04/27 04:23:53;;;;;;;4.25;3.25;;;;;;;1.39;65.46;99776.53;2069698;28;20889;-63
2021/04/27 04:24:53;;;;;;;5.18;3.25;;;;;;;1.47;65.38;99785.09;2069142;28;20112;-64
2021/04/27 04:25:54;;;;;;;8.90;3.40;;;;;;;1.48;65.61;99786.81;2068560;28;20052;-64
2021/04/27 04:26:54;;;;;;;5.53;3.30;;;;;;;1.50;65.32;99784.25;2069616;28;20022;-64
2021/04/27 04:27:55;;;;;;;4.53;3.33;;;;;;;1.50;65.28;99784.25;2069364;28;20038;-64
2021/04/27 04:28:55;;;;;;;4.43;3.40;;;;;;;1.49;65.94;99775.69;2069283;28;20037;-64
2021/04/27 04:29:55;;;;;;;6.47;3.17;;;;;;;1.59;65.31;99784.25;2070390;28;20028;-64
2021/04/27 04:30:55;;;;;;;4.23;3.00;;;;;;;1.63;64.73;99782.53;2068796;28;20588;-64
2021/04/27 04:31:56;;;;;;;6.40;3.63;;;;;;;1.68;64.31;99784.22;2071692;28;20120;-64
2021/04/27 04:32:56;;;;;;;6.90;3.53;;;;;;;1.73;64.91;99778.25;2071066;28;20114;-63
2021/04/27 04:33:57;;;;;;;5.17;3.70;;;;;;;1.73;64.41;99778.25;2071319;28;20033;-63
2021/04/27 04:34:57;;;;;;;9.50;3.40;;;;;;;1.77;64.41;99778.25;2071254;28;20597;-63
2021/04/27 04:35:58;;;;;;;7.05;3.40;;;;;;;1.78;64.39;99785.09;2071082;28;20064;-63
2021/04/27 04:36:58;;;;;;;7.97;3.33;;;;;;;1.83;64.23;99782.53;2071433;28;20068;-64
2021/04/27 04:37:59;;;;;;;10.97;3.60;;;;;;;1.89;64.15;99786.78;2067541;28;20104;-63
2021/04/27 04:39:00;;;;;;;6.70;3.40;;;;;;;1.92;64.03;99779.94;2071193;28;20018;-63
2021/04/27 04:40:00;;;;;;;7.40;3.03;;;;;;;1.92;64.17;99784.19;2071733;28;20032;-63
2021/04/27 04:41:01;;;;;;;8.70;3.35;;;;;;;1.97;64.26;99785.91;2071311;28;20057;-63
2021/04/27 04:42:02;;;;;;;5.07;3.10;;;;;;;2.02;64.00;99778.19;2071396;28;20034;-63
2021/04/27 04:43:02;;;;;;;5.82;3.10;;;;;;;2.07;64.15;99780.75;2068487;28;20705;-63
2021/04/27 04:44:04;;;;;;;7.37;3.87;;;;;;;2.11;64.01;99777.31;2069574;28;20033;-63
2021/04/27 04:45:05;;;;;;;;;;;;;;;2.16;63.70;99784.16;2071140;28;20346;-64
2021/04/27 04:46:05;;;;;;;4.55;3.60;;;;;;;2.18;63.73;99779.88;2070812;28;20215;-64
2021/04/27 04:47:06;;;;;;;7.90;3.43;;;;;;;2.26;63.48;99784.97;2071747;28;20029;-64
2021/04/27 04:48:06;;;;;;;4.57;3.40;;;;;;;2.35;62.96;99783.28;2071054;28;20026;-63
2021/04/27 04:49:07;;;;;;;5.20;3.40;;;;;;;2.38;62.81;99781.53;2071174;28;20033;-64
2021/04/27 04:50:09;;;;;;;6.37;3.47;;;;;;;2.45;62.81;99785.78;2070726;28;20026;-64
2021/04/27 04:51:09;;;;;;;7.70;3.25;;;;;;;2.51;62.37;99787.50;2070495;28;20161;-63
2021/04/27 04:52:10;;;;;;;6.33;3.50;;;;;;;2.58;61.90;99778.88;2071434;28;20521;-63
2021/04/27 04:53:11;;;;;;;6.07;3.63;;;;;;;2.66;62.11;99781.44;2071044;28;20030;-63